Crescendo — FGE4973 — position and weather

sailwx.info

Track history (hours):
 
Tides and Currents Weather Stations Pressure Air Temp Water Temp Dewpoint Dewpoint Depression Visibility Wind Speed Wind Dir Waves Ship Positions

Crescendo

Last reported at 2017-Sep-06 08:58 UTC. Time now 2017-Oct-22 23:07 UTC.
Position N 48°04' W 004°44'.
Warning: this ship's position is 46 days out of date.

Type: Sailing vessel. MMSI: 227029580.

Date/timePositionNaut miles runAvg speedWind from/ knotsBaromVisibWave heightAir tempDewpointWater temp
2017-Sep-06 08:58N 48°04' W 004°44'6 6.1
2017-Sep-06 07:58N 48°08' W 004°37'6 6.0
2017-Sep-06 06:58N 48°12' W 004°30'2 0.1
2017-Sep-05 09:58N 48°14' W 004°30'5 4.2
2017-Sep-05 08:48N 48°10' W 004°35'2 5.9
2017-Sep-05 08:24N 48°12' W 004°36'2 5.5
2017-Sep-05 08:00N 48°14' W 004°38'2 3.8
2017-Sep-05 07:30N 48°16' W 004°38'2 3.8
2017-Sep-05 07:00N 48°17' W 004°37'1 1.6
2017-Sep-05 06:30N 48°17' W 004°36'  
2017-Sep-02 21:38N 48°17' W 004°36'0 0.1
2017-Sep-02 21:30N 48°17' W 004°36'1 2.9
2017-Sep-02 21:00N 48°18' W 004°37'6 5.4
2017-Sep-02 19:58N 48°19' W 004°45'  
2017-Aug-31 10:58N 48°24' W 004°53'6 6.3
2017-Aug-31 09:58N 48°19' W 004°47'2 4.8
2017-Aug-31 09:30N 48°18' W 004°44'2 3.5
2017-Aug-31 09:00N 48°19' W 004°41'3 5.0
2017-Aug-31 08:30N 48°18' W 004°38'2 0.1
2017-Aug-30 11:34N 48°17' W 004°36'0 0.0
2017-Aug-30 11:28N 48°17' W 004°36'0 0.9
2017-Aug-30 11:01N 48°17' W 004°36'2 4.1
2017-Aug-30 10:30N 48°16' W 004°38'3 5.0
2017-Aug-30 10:00N 48°14' W 004°37'2 4.7
2017-Aug-30 09:30N 48°11' W 004°38'3 6.0
2017-Aug-30 09:00N 48°09' W 004°41'4 6.1
2017-Aug-30 08:25N 48°06' W 004°44'  
Track history (hours):
 
Tides and Currents Weather Stations Pressure Air Temp Water Temp Dewpoint Dewpoint Depression Visibility Wind Speed Wind Dir Waves Ship Positions

Crescendo

Last reported at 2017-Sep-06 08:58 UTC. Time now 2017-Oct-22 23:07 UTC.
Position N 48°04' W 004°44'.
Warning: this ship's position is 46 days out of date.

Type: Sailing vessel. MMSI: 227029580.

Date/timePositionNaut miles runAvg speedWind from/ knotsBaromVisibWave heightAir tempDewpointWater temp
2017-Sep-06 08:58N 48°04' W 004°44'6 6.1
2017-Sep-06 07:58N 48°08' W 004°37'6 6.0
2017-Sep-06 06:58N 48°12' W 004°30'2 0.1
2017-Sep-05 09:58N 48°14' W 004°30'5 4.2
2017-Sep-05 08:48N 48°10' W 004°35'2 5.9
2017-Sep-05 08:24N 48°12' W 004°36'2 5.5
2017-Sep-05 08:00N 48°14' W 004°38'2 3.8
2017-Sep-05 07:30N 48°16' W 004°38'2 3.8
2017-Sep-05 07:00N 48°17' W 004°37'1 1.6
2017-Sep-05 06:30N 48°17' W 004°36'  
2017-Sep-02 21:38N 48°17' W 004°36'0 0.1
2017-Sep-02 21:30N 48°17' W 004°36'1 2.9
2017-Sep-02 21:00N 48°18' W 004°37'6 5.4
2017-Sep-02 19:58N 48°19' W 004°45'  
2017-Aug-31 10:58N 48°24' W 004°53'6 6.3
2017-Aug-31 09:58N 48°19' W 004°47'2 4.8
2017-Aug-31 09:30N 48°18' W 004°44'2 3.5
2017-Aug-31 09:00N 48°19' W 004°41'3 5.0
2017-Aug-31 08:30N 48°18' W 004°38'2 0.1
2017-Aug-30 11:34N 48°17' W 004°36'0 0.0
2017-Aug-30 11:28N 48°17' W 004°36'0 0.9
2017-Aug-30 11:01N 48°17' W 004°36'2 4.1
2017-Aug-30 10:30N 48°16' W 004°38'3 5.0
2017-Aug-30 10:00N 48°14' W 004°37'2 4.7
2017-Aug-30 09:30N 48°11' W 004°38'3 6.0
2017-Aug-30 09:00N 48°09' W 004°41'4 6.1
2017-Aug-30 08:25N 48°06' W 004°44'  

Dump ship's entire track history